sensor_id;sensor_type;location;lat;lon;timestamp;temperature;humidity
12119;DHT22;6123;48.864;9.200;2024-01-30T00:00:43;4.10;99.90
12119;DHT22;6123;48.864;9.200;2024-01-30T00:03:08;4.10;99.90
12119;DHT22;6123;48.864;9.200;2024-01-30T00:05:34;4.10;99.90
12119;DHT22;6123;48.864;9.200;2024-01-30T00:07:59;4.30;99.90
12119;DHT22;6123;48.864;9.200;2024-01-30T00:10:25;4.20;99.90
12119;DHT22;6123;48.864;9.200;2024-01-30T00:12:50;4.20;99.90
12119;DHT22;6123;48.864;9.200;2024-01-30T00:15:16;4.20;99.90
12119;DHT22;6123;48.864;9.200;2024-01-30T00:17:41;4.30;99.90
12119;DHT22;6123;48.864;9.200;2024-01-30T00:20:07;4.30;99.90
12119;DHT22;6123;48.864;9.200;2024-01-30T00:22:34;4.10;99.90
12119;DHT22;6123;48.864;9.200;2024-01-30T00:25:00;4.00;99.90
12119;DHT22;6123;48.864;9.200;2024-01-30T00:27:26;4.00;99.90
12119;DHT22;6123;48.864;9.200;2024-01-30T00:29:53;4.00;99.90
12119;DHT22;6123;48.864;9.200;2024-01-30T00:32:18;4.00;99.90
12119;DHT22;6123;48.864;9.200;2024-01-30T00:34:44;4.10;99.90
12119;DHT22;6123;48.864;9.200;2024-01-30T00:37:10;4.10;99.90
12119;DHT22;6123;48.864;9.200;2024-01-30T00:39:35;4.20;99.90
12119;DHT22;6123;48.864;9.200;2024-01-30T00:42:01;4.20;99.90
12119;DHT22;6123;48.864;9.200;2024-01-30T00:44:27;4.20;99.90
12119;DHT22;6123;48.864;9.200;2024-01-30T00:46:52;4.20;99.90
12119;DHT22;6123;48.864;9.200;2024-01-30T00:49:18;4.30;99.90
12119;DHT22;6123;48.864;9.200;2024-01-30T00:51:43;4.40;99.90
12119;DHT22;6123;48.864;9.200;2024-01-30T00:54:09;4.30;99.90
12119;DHT22;6123;48.864;9.200;2024-01-30T00:56:34;4.00;99.90
12119;DHT22;6123;48.864;9.200;2024-01-30T00:59:00;3.80;99.90
12119;DHT22;6123;48.864;9.200;2024-01-30T01:01:25;3.80;99.90
12119;DHT22;6123;48.864;9.200;2024-01-30T01:03:51;3.80;99.90
12119;DHT22;6123;48.864;9.200;2024-01-30T01:06:17;3.70;99.90
12119;DHT22;6123;48.864;9.200;2024-01-30T01:08:42;3.70;99.90
12119;DHT22;6123;48.864;9.200;2024-01-30T01:11:08;3.60;99.90
12119;DHT22;6123;48.864;9.200;2024-01-30T01:13:33;3.60;99.90
12119;DHT22;6123;48.864;9.200;2024-01-30T01:15:59;3.60;99.90
12119;DHT22;6123;48.864;9.200;2024-01-30T01:18:24;3.50;99.90
12119;DHT22;6123;48.864;9.200;2024-01-30T01:20:50;3.50;99.90
12119;DHT22;6123;48.864;9.200;2024-01-30T01:23:15;3.40;99.90
12119;DHT22;6123;48.864;9.200;2024-01-30T01:25:41;3.60;99.90
12119;DHT22;6123;48.864;9.200;2024-01-30T01:28:06;3.50;99.90
12119;DHT22;6123;48.864;9.200;2024-01-30T01:30:32;3.60;99.90
12119;DHT22;6123;48.864;9.200;2024-01-30T01:32:58;3.50;99.90
12119;DHT22;6123;48.864;9.200;2024-01-30T01:35:26;3.60;99.90
12119;DHT22;6123;48.864;9.200;2024-01-30T01:37:52;3.50;99.90
12119;DHT22;6123;48.864;9.200;2024-01-30T01:40:24;3.50;99.90
12119;DHT22;6123;48.864;9.200;2024-01-30T01:42:51;3.50;99.90
12119;DHT22;6123;48.864;9.200;2024-01-30T01:45:18;3.50;99.90
12119;DHT22;6123;48.864;9.200;2024-01-30T01:47:44;3.50;99.90
12119;DHT22;6123;48.864;9.200;2024-01-30T01:50:12;3.50;99.90
12119;DHT22;6123;48.864;9.200;2024-01-30T01:52:40;3.50;99.90
12119;DHT22;6123;48.864;9.200;2024-01-30T01:55:07;3.50;99.90
12119;DHT22;6123;48.864;9.200;2024-01-30T01:57:33;3.50;99.90
12119;DHT22;6123;48.864;9.200;2024-01-30T02:00:00;3.50;99.90
12119;DHT22;6123;48.864;9.200;2024-01-30T02:02:26;3.50;99.90
12119;DHT22;6123;48.864;9.200;2024-01-30T02:04:55;3.50;99.90
12119;DHT22;6123;48.864;9.200;2024-01-30T02:07:21;3.50;99.90
12119;DHT22;6123;48.864;9.200;2024-01-30T02:09:46;3.50;99.90
12119;DHT22;6123;48.864;9.200;2024-01-30T02:12:12;3.60;99.90
12119;DHT22;6123;48.864;9.200;2024-01-30T02:14:45;3.60;99.90
12119;DHT22;6123;48.864;9.200;2024-01-30T02:17:11;3.60;99.90
12119;DHT22;6123;48.864;9.200;2024-01-30T02:19:36;3.60;99.90
12119;DHT22;6123;48.864;9.200;2024-01-30T02:22:03;3.50;99.90
12119;DHT22;6123;48.864;9.200;2024-01-30T02:24:28;3.50;99.90
12119;DHT22;6123;48.864;9.200;2024-01-30T02:26:54;3.50;99.90
12119;DHT22;6123;48.864;9.200;2024-01-30T02:29:19;3.50;99.90
12119;DHT22;6123;48.864;9.200;2024-01-30T02:31:45;3.40;99.90
12119;DHT22;6123;48.864;9.200;2024-01-30T02:34:11;3.40;99.90
12119;DHT22;6123;48.864;9.200;2024-01-30T02:36:36;3.50;99.90
12119;DHT22;6123;48.864;9.200;2024-01-30T02:39:02;3.50;99.90
12119;DHT22;6123;48.864;9.200;2024-01-30T02:41:28;3.40;99.90
12119;DHT22;6123;48.864;9.200;2024-01-30T02:43:53;3.50;99.90
12119;DHT22;6123;48.864;9.200;2024-01-30T02:46:19;3.40;99.90
12119;DHT22;6123;48.864;9.200;2024-01-30T02:48:44;3.50;99.90
12119;DHT22;6123;48.864;9.200;2024-01-30T02:51:10;3.40;99.90
12119;DHT22;6123;48.864;9.200;2024-01-30T02:53:35;3.40;99.90
12119;DHT22;6123;48.864;9.200;2024-01-30T02:56:02;3.40;99.90
12119;DHT22;6123;48.864;9.200;2024-01-30T02:58:28;3.40;99.90
12119;DHT22;6123;48.864;9.200;2024-01-30T03:00:53;3.30;99.90
12119;DHT22;6123;48.864;9.200;2024-01-30T03:03:19;3.30;99.90
12119;DHT22;6123;48.864;9.200;2024-01-30T03:05:44;3.30;99.90
12119;DHT22;6123;48.864;9.200;2024-01-30T03:08:10;3.30;99.90
12119;DHT22;6123;48.864;9.200;2024-01-30T03:10:35;3.30;99.90
12119;DHT22;6123;48.864;9.200;2024-01-30T03:13:01;3.30;99.90
12119;DHT22;6123;48.864;9.200;2024-01-30T03:15:27;3.30;99.90
12119;DHT22;6123;48.864;9.200;2024-01-30T03:17:53;3.30;99.90
12119;DHT22;6123;48.864;9.200;2024-01-30T03:20:19;3.30;99.90
12119;DHT22;6123;48.864;9.200;2024-01-30T03:22:44;3.30;99.90
12119;DHT22;6123;48.864;9.200;2024-01-30T03:25:10;3.40;99.90
12119;DHT22;6123;48.864;9.200;2024-01-30T03:27:35;3.30;99.90
12119;DHT22;6123;48.864;9.200;2024-01-30T03:30:01;3.30;99.90
12119;DHT22;6123;48.864;9.200;2024-01-30T03:32:27;3.30;99.90
12119;DHT22;6123;48.864;9.200;2024-01-30T03:34:53;3.30;99.90
12119;DHT22;6123;48.864;9.200;2024-01-30T03:37:18;3.30;99.90
12119;DHT22;6123;48.864;9.200;2024-01-30T03:39:44;3.30;99.90
12119;DHT22;6123;48.864;9.200;2024-01-30T03:42:09;3.30;99.90
12119;DHT22;6123;48.864;9.200;2024-01-30T03:44:35;3.20;99.90
12119;DHT22;6123;48.864;9.200;2024-01-30T03:47:00;3.20;99.90
12119;DHT22;6123;48.864;9.200;2024-01-30T03:49:26;3.20;99.90
12119;DHT22;6123;48.864;9.200;2024-01-30T03:51:51;3.10;99.90
12119;DHT22;6123;48.864;9.200;2024-01-30T03:54:17;3.00;99.90
12119;DHT22;6123;48.864;9.200;2024-01-30T03:56:42;3.00;99.90
12119;DHT22;6123;48.864;9.200;2024-01-30T03:59:08;2.90;99.90
12119;DHT22;6123;48.864;9.200;2024-01-30T04:01:33;2.90;99.90
12119;DHT22;6123;48.864;9.200;2024-01-30T04:03:59;2.80;99.90
12119;DHT22;6123;48.864;9.200;2024-01-30T04:06:25;2.80;99.90
12119;DHT22;6123;48.864;9.200;2024-01-30T04:08:50;2.80;99.90
12119;DHT22;6123;48.864;9.200;2024-01-30T04:11:18;2.80;99.90
12119;DHT22;6123;48.864;9.200;2024-01-30T04:13:44;2.80;99.90
12119;DHT22;6123;48.864;9.200;2024-01-30T04:16:19;2.80;99.90
12119;DHT22;6123;48.864;9.200;2024-01-30T04:18:46;2.70;99.90
12119;DHT22;6123;48.864;9.200;2024-01-30T04:21:11;2.70;99.90
12119;DHT22;6123;48.864;9.200;2024-01-30T04:23:37;2.70;99.90
12119;DHT22;6123;48.864;9.200;2024-01-30T04:26:02;2.80;99.90
12119;DHT22;6123;48.864;9.200;2024-01-30T04:28:28;2.80;99.90
12119;DHT22;6123;48.864;9.200;2024-01-30T04:30:54;2.70;99.90
12119;DHT22;6123;48.864;9.200;2024-01-30T04:33:19;2.70;99.90
12119;DHT22;6123;48.864;9.200;2024-01-30T04:35:45;2.70;99.90
12119;DHT22;6123;48.864;9.200;2024-01-30T04:38:10;2.70;99.90
12119;DHT22;6123;48.864;9.200;2024-01-30T04:40:37;2.70;99.90
12119;DHT22;6123;48.864;9.200;2024-01-30T04:43:02;2.70;99.90
12119;DHT22;6123;48.864;9.200;2024-01-30T04:45:28;2.80;99.90
12119;DHT22;6123;48.864;9.200;2024-01-30T04:47:54;2.80;99.90
12119;DHT22;6123;48.864;9.200;2024-01-30T04:50:19;2.80;99.90
12119;DHT22;6123;48.864;9.200;2024-01-30T04:52:45;2.80;99.90
12119;DHT22;6123;48.864;9.200;2024-01-30T04:55:10;2.90;99.90
12119;DHT22;6123;48.864;9.200;2024-01-30T04:57:36;3.00;99.90
12119;DHT22;6123;48.864;9.200;2024-01-30T05:00:02;2.90;99.90
12119;DHT22;6123;48.864;9.200;2024-01-30T05:02:28;3.00;99.90
12119;DHT22;6123;48.864;9.200;2024-01-30T05:04:54;3.00;99.90
12119;DHT22;6123;48.864;9.200;2024-01-30T05:07:20;3.20;99.90
12119;DHT22;6123;48.864;9.200;2024-01-30T05:09:45;3.20;99.90
12119;DHT22;6123;48.864;9.200;2024-01-30T05:12:11;3.30;99.90
12119;DHT22;6123;48.864;9.200;2024-01-30T05:14:36;3.20;99.90
12119;DHT22;6123;48.864;9.200;2024-01-30T05:17:02;3.20;99.90
12119;DHT22;6123;48.864;9.200;2024-01-30T05:19:28;3.10;99.90
12119;DHT22;6123;48.864;9.200;2024-01-30T05:21:54;3.10;99.90
12119;DHT22;6123;48.864;9.200;2024-01-30T05:24:19;3.10;99.90
12119;DHT22;6123;48.864;9.200;2024-01-30T05:26:45;3.10;99.90
12119;DHT22;6123;48.864;9.200;2024-01-30T05:29:10;3.20;99.90
12119;DHT22;6123;48.864;9.200;2024-01-30T05:31:36;3.10;99.90
12119;DHT22;6123;48.864;9.200;2024-01-30T05:34:01;3.20;99.90
12119;DHT22;6123;48.864;9.200;2024-01-30T05:36:27;3.20;99.90
12119;DHT22;6123;48.864;9.200;2024-01-30T05:38:52;3.20;99.90
12119;DHT22;6123;48.864;9.200;2024-01-30T05:41:19;3.20;99.90
12119;DHT22;6123;48.864;9.200;2024-01-30T05:43:44;3.30;99.90
12119;DHT22;6123;48.864;9.200;2024-01-30T05:46:10;3.30;99.90
12119;DHT22;6123;48.864;9.200;2024-01-30T05:48:35;3.20;99.90
12119;DHT22;6123;48.864;9.200;2024-01-30T05:51:02;3.30;99.90
12119;DHT22;6123;48.864;9.200;2024-01-30T05:53:29;3.30;99.90
12119;DHT22;6123;48.864;9.200;2024-01-30T05:55:54;3.30;99.90
12119;DHT22;6123;48.864;9.200;2024-01-30T05:58:20;3.20;99.90
12119;DHT22;6123;48.864;9.200;2024-01-30T06:00:46;3.20;99.90
12119;DHT22;6123;48.864;9.200;2024-01-30T06:03:12;3.10;99.90
12119;DHT22;6123;48.864;9.200;2024-01-30T06:05:37;3.10;99.90
12119;DHT22;6123;48.864;9.200;2024-01-30T06:08:03;3.10;99.90
12119;DHT22;6123;48.864;9.200;2024-01-30T06:10:29;3.10;99.90
12119;DHT22;6123;48.864;9.200;2024-01-30T06:12:54;3.10;99.90
12119;DHT22;6123;48.864;9.200;2024-01-30T06:15:20;3.00;99.90
12119;DHT22;6123;48.864;9.200;2024-01-30T06:17:46;2.90;99.90
12119;DHT22;6123;48.864;9.200;2024-01-30T06:20:11;2.90;99.90
12119;DHT22;6123;48.864;9.200;2024-01-30T06:22:37;2.80;99.90
12119;DHT22;6123;48.864;9.200;2024-01-30T06:25:02;2.80;99.90
12119;DHT22;6123;48.864;9.200;2024-01-30T06:27:28;2.80;99.90
12119;DHT22;6123;48.864;9.200;2024-01-30T06:29:53;2.70;99.90
12119;DHT22;6123;48.864;9.200;2024-01-30T06:32:19;2.70;99.90
12119;DHT22;6123;48.864;9.200;2024-01-30T06:34:44;2.70;99.90
12119;DHT22;6123;48.864;9.200;2024-01-30T06:37:10;2.70;99.90
12119;DHT22;6123;48.864;9.200;2024-01-30T06:39:35;2.70;99.90
12119;DHT22;6123;48.864;9.200;2024-01-30T06:42:01;2.70;99.90
12119;DHT22;6123;48.864;9.200;2024-01-30T06:44:26;2.70;99.90
12119;DHT22;6123;48.864;9.200;2024-01-30T06:46:52;2.70;99.90
12119;DHT22;6123;48.864;9.200;2024-01-30T06:49:17;2.70;99.90
12119;DHT22;6123;48.864;9.200;2024-01-30T06:51:43;2.60;99.90
12119;DHT22;6123;48.864;9.200;2024-01-30T06:54:09;2.60;99.90
12119;DHT22;6123;48.864;9.200;2024-01-30T06:56:34;2.60;99.90
12119;DHT22;6123;48.864;9.200;2024-01-30T06:59:00;2.60;99.90
12119;DHT22;6123;48.864;9.200;2024-01-30T07:01:29;2.70;99.90
12119;DHT22;6123;48.864;9.200;2024-01-30T07:03:54;2.70;99.90
12119;DHT22;6123;48.864;9.200;2024-01-30T07:06:20;2.60;99.90
12119;DHT22;6123;48.864;9.200;2024-01-30T07:08:46;2.60;99.90
12119;DHT22;6123;48.864;9.200;2024-01-30T07:11:18;2.60;99.90
12119;DHT22;6123;48.864;9.200;2024-01-30T07:13:44;2.60;99.90
12119;DHT22;6123;48.864;9.200;2024-01-30T07:16:09;2.70;99.90
12119;DHT22;6123;48.864;9.200;2024-01-30T07:18:35;2.70;99.90
12119;DHT22;6123;48.864;9.200;2024-01-30T07:21:00;2.70;99.90
12119;DHT22;6123;48.864;9.200;2024-01-30T07:23:26;2.70;99.90
12119;DHT22;6123;48.864;9.200;2024-01-30T07:25:51;2.80;99.90
12119;DHT22;6123;48.864;9.200;2024-01-30T07:28:17;2.80;99.90
12119;DHT22;6123;48.864;9.200;2024-01-30T07:30:43;2.90;99.90
12119;DHT22;6123;48.864;9.200;2024-01-30T07:33:08;3.00;99.90
12119;DHT22;6123;48.864;9.200;2024-01-30T07:35:35;3.00;99.90
12119;DHT22;6123;48.864;9.200;2024-01-30T07:38:00;3.00;99.90
12119;DHT22;6123;48.864;9.200;2024-01-30T07:40:26;3.10;99.90
12119;DHT22;6123;48.864;9.200;2024-01-30T07:42:53;3.10;99.90
12119;DHT22;6123;48.864;9.200;2024-01-30T07:45:19;3.10;99.90
12119;DHT22;6123;48.864;9.200;2024-01-30T07:47:48;3.20;99.90
12119;DHT22;6123;48.864;9.200;2024-01-30T07:50:14;3.20;99.90
12119;DHT22;6123;48.864;9.200;2024-01-30T07:52:39;3.30;99.90
12119;DHT22;6123;48.864;9.200;2024-01-30T07:55:05;3.40;99.90
12119;DHT22;6123;48.864;9.200;2024-01-30T07:57:33;3.40;99.90
12119;DHT22;6123;48.864;9.200;2024-01-30T07:59:59;3.40;99.90
12119;DHT22;6123;48.864;9.200;2024-01-30T08:02:25;3.50;99.90
12119;DHT22;6123;48.864;9.200;2024-01-30T08:04:50;3.40;99.90
12119;DHT22;6123;48.864;9.200;2024-01-30T08:07:16;3.50;99.90
12119;DHT22;6123;48.864;9.200;2024-01-30T08:09:43;3.60;99.90
12119;DHT22;6123;48.864;9.200;2024-01-30T08:12:09;3.70;99.90
12119;DHT22;6123;48.864;9.200;2024-01-30T08:14:34;3.80;99.90
12119;DHT22;6123;48.864;9.200;2024-01-30T08:17:00;3.90;99.90
12119;DHT22;6123;48.864;9.200;2024-01-30T08:19:25;4.00;99.90
12119;DHT22;6123;48.864;9.200;2024-01-30T08:21:51;4.10;99.90
12119;DHT22;6123;48.864;9.200;2024-01-30T08:24:16;4.30;99.90
12119;DHT22;6123;48.864;9.200;2024-01-30T08:26:42;4.40;99.90
12119;DHT22;6123;48.864;9.200;2024-01-30T08:29:07;4.50;99.90
12119;DHT22;6123;48.864;9.200;2024-01-30T08:31:33;4.70;99.90
12119;DHT22;6123;48.864;9.200;2024-01-30T08:33:58;4.90;99.90
12119;DHT22;6123;48.864;9.200;2024-01-30T08:36:25;5.00;99.90
12119;DHT22;6123;48.864;9.200;2024-01-30T08:38:51;5.10;99.90
12119;DHT22;6123;48.864;9.200;2024-01-30T08:41:16;5.00;99.90
12119;DHT22;6123;48.864;9.200;2024-01-30T08:43:42;5.10;99.90
12119;DHT22;6123;48.864;9.200;2024-01-30T08:46:07;5.20;99.90
12119;DHT22;6123;48.864;9.200;2024-01-30T08:48:33;5.20;99.90
12119;DHT22;6123;48.864;9.200;2024-01-30T08:50:58;5.20;99.90
12119;DHT22;6123;48.864;9.200;2024-01-30T08:53:24;5.40;99.90
12119;DHT22;6123;48.864;9.200;2024-01-30T08:55:50;5.50;99.90
12119;DHT22;6123;48.864;9.200;2024-01-30T08:58:15;5.70;99.90
12119;DHT22;6123;48.864;9.200;2024-01-30T09:00:43;5.70;99.90
12119;DHT22;6123;48.864;9.200;2024-01-30T09:03:09;5.90;99.90
12119;DHT22;6123;48.864;9.200;2024-01-30T09:05:34;6.00;99.90
12119;DHT22;6123;48.864;9.200;2024-01-30T09:08:00;6.10;99.90
12119;DHT22;6123;48.864;9.200;2024-01-30T09:10:25;6.20;99.90
12119;DHT22;6123;48.864;9.200;2024-01-30T09:12:52;6.20;99.90
12119;DHT22;6123;48.864;9.200;2024-01-30T09:15:18;6.30;99.90
12119;DHT22;6123;48.864;9.200;2024-01-30T09:17:44;6.30;99.90
12119;DHT22;6123;48.864;9.200;2024-01-30T09:20:10;6.40;99.90
12119;DHT22;6123;48.864;9.200;2024-01-30T09:22:35;6.30;99.90
12119;DHT22;6123;48.864;9.200;2024-01-30T09:25:01;6.40;99.90
12119;DHT22;6123;48.864;9.200;2024-01-30T09:27:27;6.40;99.90
12119;DHT22;6123;48.864;9.200;2024-01-30T09:29:52;6.60;99.90
12119;DHT22;6123;48.864;9.200;2024-01-30T09:32:18;6.60;99.90
12119;DHT22;6123;48.864;9.200;2024-01-30T09:34:43;6.90;99.90
12119;DHT22;6123;48.864;9.200;2024-01-30T09:37:09;7.20;99.90
12119;DHT22;6123;48.864;9.200;2024-01-30T09:39:35;7.40;99.90
12119;DHT22;6123;48.864;9.200;2024-01-30T09:44:46;7.70;99.90
12119;DHT22;6123;48.864;9.200;2024-01-30T09:47:12;7.70;99.90
12119;DHT22;6123;48.864;9.200;2024-01-30T09:49:39;7.80;99.90
12119;DHT22;6123;48.864;9.200;2024-01-30T09:52:06;7.90;99.90
12119;DHT22;6123;48.864;9.200;2024-01-30T09:54:33;7.90;99.90
12119;DHT22;6123;48.864;9.200;2024-01-30T09:56:59;7.80;99.90
12119;DHT22;6123;48.864;9.200;2024-01-30T09:59:24;7.80;99.90
12119;DHT22;6123;48.864;9.200;2024-01-30T10:01:50;7.90;99.90
12119;DHT22;6123;48.864;9.200;2024-01-30T10:04:16;8.10;99.90
12119;DHT22;6123;48.864;9.200;2024-01-30T10:06:42;8.30;99.90
12119;DHT22;6123;48.864;9.200;2024-01-30T10:09:08;8.40;99.90
12119;DHT22;6123;48.864;9.200;2024-01-30T10:11:35;8.50;99.90
12119;DHT22;6123;48.864;9.200;2024-01-30T10:14:01;8.60;99.90
12119;DHT22;6123;48.864;9.200;2024-01-30T10:16:27;8.70;99.90
12119;DHT22;6123;48.864;9.200;2024-01-30T10:18:52;8.60;99.90
12119;DHT22;6123;48.864;9.200;2024-01-30T10:21:18;8.70;99.90
12119;DHT22;6123;48.864;9.200;2024-01-30T10:23:44;8.80;99.90
12119;DHT22;6123;48.864;9.200;2024-01-30T10:26:12;8.80;99.90
12119;DHT22;6123;48.864;9.200;2024-01-30T10:28:38;8.90;99.90
12119;DHT22;6123;48.864;9.200;2024-01-30T10:31:04;9.00;99.90
12119;DHT22;6123;48.864;9.200;2024-01-30T10:33:32;9.10;99.90
12119;DHT22;6123;48.864;9.200;2024-01-30T10:36:01;9.10;99.90
12119;DHT22;6123;48.864;9.200;2024-01-30T10:38:29;8.90;99.90
12119;DHT22;6123;48.864;9.200;2024-01-30T10:41:00;8.70;99.90
12119;DHT22;6123;48.864;9.200;2024-01-30T10:43:35;8.80;99.90
12119;DHT22;6123;48.864;9.200;2024-01-30T10:46:15;8.90;99.90
12119;DHT22;6123;48.864;9.200;2024-01-30T10:48:44;8.90;99.90
12119;DHT22;6123;48.864;9.200;2024-01-30T10:51:13;9.00;99.90
12119;DHT22;6123;48.864;9.200;2024-01-30T10:53:39;8.80;99.90
12119;DHT22;6123;48.864;9.200;2024-01-30T10:56:06;9.00;99.90
12119;DHT22;6123;48.864;9.200;2024-01-30T10:58:31;8.90;99.90
12119;DHT22;6123;48.864;9.200;2024-01-30T11:00:57;9.00;99.90
12119;DHT22;6123;48.864;9.200;2024-01-30T11:03:24;9.10;99.90
12119;DHT22;6123;48.864;9.200;2024-01-30T11:05:52;9.30;99.90
12119;DHT22;6123;48.864;9.200;2024-01-30T11:08:24;9.40;99.90
12119;DHT22;6123;48.864;9.200;2024-01-30T11:10:55;9.60;99.90
12119;DHT22;6123;48.864;9.200;2024-01-30T11:13:21;9.70;99.90
12119;DHT22;6123;48.864;9.200;2024-01-30T11:15:48;9.70;99.90
12119;DHT22;6123;48.864;9.200;2024-01-30T11:18:23;9.90;99.90
12119;DHT22;6123;48.864;9.200;2024-01-30T11:20:49;10.10;99.90
12119;DHT22;6123;48.864;9.200;2024-01-30T11:23:15;10.20;99.90
12119;DHT22;6123;48.864;9.200;2024-01-30T11:25:43;10.50;99.90
12119;DHT22;6123;48.864;9.200;2024-01-30T11:28:16;10.50;99.90
12119;DHT22;6123;48.864;9.200;2024-01-30T11:30:44;10.60;99.90
12119;DHT22;6123;48.864;9.200;2024-01-30T11:33:13;10.60;99.90
12119;DHT22;6123;48.864;9.200;2024-01-30T11:35:40;10.70;99.90
12119;DHT22;6123;48.864;9.200;2024-01-30T11:38:08;10.70;99.90
12119;DHT22;6123;48.864;9.200;2024-01-30T11:40:35;10.60;99.90
12119;DHT22;6123;48.864;9.200;2024-01-30T11:43:02;10.60;99.90
12119;DHT22;6123;48.864;9.200;2024-01-30T11:45:28;10.60;99.90
12119;DHT22;6123;48.864;9.200;2024-01-30T11:47:54;10.80;99.90
12119;DHT22;6123;48.864;9.200;2024-01-30T11:50:20;11.00;99.90
12119;DHT22;6123;48.864;9.200;2024-01-30T11:52:46;11.00;99.90
12119;DHT22;6123;48.864;9.200;2024-01-30T11:55:13;11.20;99.90
12119;DHT22;6123;48.864;9.200;2024-01-30T11:57:39;11.10;99.90
12119;DHT22;6123;48.864;9.200;2024-01-30T12:00:05;11.20;99.90
12119;DHT22;6123;48.864;9.200;2024-01-30T12:02:41;11.30;99.90
12119;DHT22;6123;48.864;9.200;2024-01-30T12:05:07;11.30;99.90
12119;DHT22;6123;48.864;9.200;2024-01-30T12:07:33;11.40;99.90
12119;DHT22;6123;48.864;9.200;2024-01-30T12:09:59;11.30;99.90
12119;DHT22;6123;48.864;9.200;2024-01-30T12:12:28;11.20;99.90
12119;DHT22;6123;48.864;9.200;2024-01-30T12:14:56;11.10;99.90
12119;DHT22;6123;48.864;9.200;2024-01-30T12:17:32;11.00;99.90
12119;DHT22;6123;48.864;9.200;2024-01-30T12:20:07;11.00;99.90
12119;DHT22;6123;48.864;9.200;2024-01-30T12:22:36;11.10;99.90
12119;DHT22;6123;48.864;9.200;2024-01-30T12:25:14;11.20;99.90
12119;DHT22;6123;48.864;9.200;2024-01-30T12:27:45;11.30;99.90
12119;DHT22;6123;48.864;9.200;2024-01-30T12:30:12;11.30;98.90
12119;DHT22;6123;48.864;9.200;2024-01-30T12:32:42;11.30;98.40
12119;DHT22;6123;48.864;9.200;2024-01-30T12:35:16;11.30;98.20
12119;DHT22;6123;48.864;9.200;2024-01-30T12:37:46;11.50;99.90
12119;DHT22;6123;48.864;9.200;2024-01-30T12:40:14;11.60;99.90
12119;DHT22;6123;48.864;9.200;2024-01-30T12:42:43;11.80;99.90
12119;DHT22;6123;48.864;9.200;2024-01-30T12:45:11;11.90;99.90
12119;DHT22;6123;48.864;9.200;2024-01-30T12:47:37;11.90;98.70
12119;DHT22;6123;48.864;9.200;2024-01-30T12:50:03;12.10;99.90
12119;DHT22;6123;48.864;9.200;2024-01-30T12:52:28;12.30;97.00
12119;DHT22;6123;48.864;9.200;2024-01-30T12:54:54;12.50;96.90
12119;DHT22;6123;48.864;9.200;2024-01-30T12:57:20;12.70;96.40
12119;DHT22;6123;48.864;9.200;2024-01-30T12:59:46;12.80;94.60
12119;DHT22;6123;48.864;9.200;2024-01-30T13:02:15;13.20;94.40
12119;DHT22;6123;48.864;9.200;2024-01-30T13:04:40;13.60;91.30
12119;DHT22;6123;48.864;9.200;2024-01-30T13:07:06;14.00;88.70
12119;DHT22;6123;48.864;9.200;2024-01-30T13:09:32;14.20;84.60
12119;DHT22;6123;48.864;9.200;2024-01-30T13:11:58;13.80;78.80
12119;DHT22;6123;48.864;9.200;2024-01-30T13:14:24;14.00;80.70
12119;DHT22;6123;48.864;9.200;2024-01-30T13:16:49;14.20;78.30
12119;DHT22;6123;48.864;9.200;2024-01-30T13:19:15;14.30;79.40
12119;DHT22;6123;48.864;9.200;2024-01-30T13:21:41;14.70;82.90
12119;DHT22;6123;48.864;9.200;2024-01-30T13:24:06;14.90;87.70
12119;DHT22;6123;48.864;9.200;2024-01-30T13:26:32;15.10;84.30
12119;DHT22;6123;48.864;9.200;2024-01-30T13:28:58;15.50;81.30
12119;DHT22;6123;48.864;9.200;2024-01-30T13:31:24;15.50;74.60
12119;DHT22;6123;48.864;9.200;2024-01-30T13:33:50;15.20;74.80
12119;DHT22;6123;48.864;9.200;2024-01-30T13:36:15;14.80;73.30
12119;DHT22;6123;48.864;9.200;2024-01-30T13:38:41;14.70;81.00
12119;DHT22;6123;48.864;9.200;2024-01-30T13:41:06;14.60;90.40
12119;DHT22;6123;48.864;9.200;2024-01-30T13:43:32;14.40;91.50
12119;DHT22;6123;48.864;9.200;2024-01-30T13:45:58;14.30;91.50
12119;DHT22;6123;48.864;9.200;2024-01-30T13:48:24;14.40;91.60
12119;DHT22;6123;48.864;9.200;2024-01-30T13:50:49;14.30;93.20
12119;DHT22;6123;48.864;9.200;2024-01-30T13:53:15;14.40;92.50
12119;DHT22;6123;48.864;9.200;2024-01-30T13:55:41;14.20;94.20
12119;DHT22;6123;48.864;9.200;2024-01-30T13:58:07;14.00;95.40
12119;DHT22;6123;48.864;9.200;2024-01-30T14:00:33;13.90;95.50
12119;DHT22;6123;48.864;9.200;2024-01-30T14:02:59;13.80;96.00
12119;DHT22;6123;48.864;9.200;2024-01-30T14:05:25;13.60;97.40
12119;DHT22;6123;48.864;9.200;2024-01-30T14:07:51;13.40;98.90
12119;DHT22;6123;48.864;9.200;2024-01-30T14:10:17;13.30;99.00
12119;DHT22;6123;48.864;9.200;2024-01-30T14:12:43;13.30;99.40
12119;DHT22;6123;48.864;9.200;2024-01-30T14:15:09;13.20;99.90
12119;DHT22;6123;48.864;9.200;2024-01-30T14:17:35;13.10;99.90
12119;DHT22;6123;48.864;9.200;2024-01-30T14:20:04;13.00;99.90
12119;DHT22;6123;48.864;9.200;2024-01-30T14:22:31;13.10;99.90
12119;DHT22;6123;48.864;9.200;2024-01-30T14:24:57;13.10;99.90
12119;DHT22;6123;48.864;9.200;2024-01-30T14:27:22;13.00;99.90
12119;DHT22;6123;48.864;9.200;2024-01-30T14:29:48;13.00;99.90
12119;DHT22;6123;48.864;9.200;2024-01-30T14:32:14;12.80;99.90
12119;DHT22;6123;48.864;9.200;2024-01-30T14:34:39;12.70;99.90
12119;DHT22;6123;48.864;9.200;2024-01-30T14:37:05;12.60;99.90
12119;DHT22;6123;48.864;9.200;2024-01-30T14:39:30;12.70;99.90
12119;DHT22;6123;48.864;9.200;2024-01-30T14:41:57;12.50;99.90
12119;DHT22;6123;48.864;9.200;2024-01-30T14:44:22;12.40;99.90
12119;DHT22;6123;48.864;9.200;2024-01-30T14:46:48;12.40;99.90
12119;DHT22;6123;48.864;9.200;2024-01-30T14:49:14;12.30;99.90
12119;DHT22;6123;48.864;9.200;2024-01-30T14:51:41;12.20;99.90
12119;DHT22;6123;48.864;9.200;2024-01-30T14:54:06;12.10;99.90
12119;DHT22;6123;48.864;9.200;2024-01-30T14:56:32;12.10;99.90
12119;DHT22;6123;48.864;9.200;2024-01-30T14:58:58;12.10;99.90
12119;DHT22;6123;48.864;9.200;2024-01-30T15:01:23;12.00;99.90
12119;DHT22;6123;48.864;9.200;2024-01-30T15:03:49;12.00;99.90
12119;DHT22;6123;48.864;9.200;2024-01-30T15:06:16;11.90;99.90
12119;DHT22;6123;48.864;9.200;2024-01-30T15:08:42;11.90;99.90
12119;DHT22;6123;48.864;9.200;2024-01-30T15:11:08;11.90;99.90
12119;DHT22;6123;48.864;9.200;2024-01-30T15:13:33;11.80;99.90
12119;DHT22;6123;48.864;9.200;2024-01-30T15:15:59;11.70;99.90
12119;DHT22;6123;48.864;9.200;2024-01-30T15:18:24;11.70;99.90
12119;DHT22;6123;48.864;9.200;2024-01-30T15:20:50;11.60;99.90
12119;DHT22;6123;48.864;9.200;2024-01-30T15:23:15;11.50;99.90
12119;DHT22;6123;48.864;9.200;2024-01-30T15:25:41;11.50;99.90
12119;DHT22;6123;48.864;9.200;2024-01-30T15:28:07;11.40;99.90
12119;DHT22;6123;48.864;9.200;2024-01-30T15:30:35;11.30;99.90
12119;DHT22;6123;48.864;9.200;2024-01-30T15:33:00;11.40;99.90
12119;DHT22;6123;48.864;9.200;2024-01-30T15:35:26;11.30;99.90
12119;DHT22;6123;48.864;9.200;2024-01-30T15:37:51;11.30;99.90
12119;DHT22;6123;48.864;9.200;2024-01-30T15:40:17;11.30;99.90
12119;DHT22;6123;48.864;9.200;2024-01-30T15:42:43;11.20;99.90
12119;DHT22;6123;48.864;9.200;2024-01-30T15:45:09;11.20;99.90
12119;DHT22;6123;48.864;9.200;2024-01-30T15:47:35;11.20;99.90
12119;DHT22;6123;48.864;9.200;2024-01-30T15:50:02;11.10;99.90
12119;DHT22;6123;48.864;9.200;2024-01-30T15:52:29;11.00;99.90